createdAt,value
2018-04-26T00:00:24.143Z,-44
2018-04-26T00:02:49.901Z,-44
2018-04-26T00:05:15.677Z,-44
2018-04-26T00:07:41.421Z,-44
2018-04-26T00:10:07.199Z,-44
2018-04-26T00:12:32.932Z,-44
2018-04-26T00:14:58.708Z,-44
2018-04-26T00:17:24.520Z,-43
2018-04-26T00:19:50.335Z,-44
2018-04-26T00:22:16.096Z,-44
2018-04-26T00:24:41.901Z,-43
2018-04-26T00:27:07.734Z,-43
2018-04-26T00:29:33.509Z,-44
2018-04-26T00:31:59.264Z,-43
2018-04-26T00:34:25.036Z,-45
2018-04-26T00:36:50.804Z,-44
2018-04-26T00:39:16.599Z,-45
2018-04-26T00:41:42.359Z,-44
2018-04-26T00:44:08.123Z,-44
2018-04-26T00:46:33.892Z,-44
2018-04-26T00:48:59.639Z,-44
2018-04-26T00:51:37.831Z,-44
2018-04-26T00:54:03.579Z,-44
2018-04-26T00:56:29.344Z,-44
2018-04-26T00:58:55.091Z,-44
2018-04-26T01:01:20.871Z,-44
2018-04-26T01:03:46.620Z,-45
2018-04-26T01:06:12.411Z,-44
2018-04-26T01:08:38.163Z,-44
2018-04-26T01:11:03.945Z,-44
2018-04-26T01:13:29.689Z,-44
2018-04-26T01:15:55.504Z,-44
2018-04-26T01:18:21.259Z,-44
2018-04-26T01:20:47.032Z,-45
2018-04-26T01:23:12.787Z,-45
2018-04-26T01:25:38.576Z,-44
2018-04-26T01:28:04.332Z,-44
2018-04-26T01:30:30.188Z,-44
2018-04-26T01:32:55.939Z,-44
2018-04-26T01:35:21.720Z,-44
2018-04-26T01:37:47.491Z,-44
2018-04-26T01:40:13.251Z,-44
2018-04-26T01:42:38.995Z,-44
2018-04-26T01:45:04.788Z,-44
2018-04-26T01:47:30.612Z,-44
2018-04-26T01:49:56.352Z,-44
2018-04-26T01:52:22.142Z,-44
2018-04-26T01:54:47.900Z,-44
2018-04-26T01:57:13.688Z,-44
2018-04-26T01:59:39.447Z,-44
2018-04-26T02:02:05.266Z,-44
2018-04-26T02:04:31.011Z,-44
2018-04-26T02:06:56.837Z,-44
2018-04-26T02:09:22.615Z,-44
2018-04-26T02:11:48.536Z,-45
2018-04-26T02:14:14.316Z,-44
2018-04-26T02:16:40.082Z,-44
2018-04-26T02:19:06.109Z,-44
2018-04-26T02:21:31.871Z,-44
2018-04-26T02:23:57.627Z,-44
2018-04-26T02:26:23.413Z,-45
2018-04-26T02:28:49.207Z,-45
2018-04-26T02:31:14.980Z,-44
2018-04-26T02:33:40.743Z,-44
2018-04-26T02:36:06.501Z,-44
2018-04-26T02:38:32.309Z,-44
2018-04-26T02:40:58.065Z,-44
2018-04-26T02:43:23.815Z,-45
2018-04-26T02:45:49.603Z,-45
2018-04-26T02:48:15.392Z,-44
2018-04-26T02:50:41.148Z,-44
2018-04-26T02:53:06.939Z,-44
2018-04-26T02:55:32.727Z,-44
2018-04-26T02:57:58.558Z,-45
2018-04-26T03:00:24.380Z,-44
2018-04-26T03:02:50.167Z,-45
2018-04-26T03:05:16.010Z,-44
2018-04-26T03:07:41.897Z,-44
2018-04-26T03:10:07.652Z,-44
2018-04-26T03:12:33.428Z,-44
2018-04-26T03:14:59.189Z,-44
2018-04-26T03:17:24.976Z,-45
2018-04-26T03:19:50.731Z,-45
2018-04-26T03:22:16.537Z,-44
2018-04-26T03:24:42.283Z,-44
2018-04-26T03:27:08.048Z,-44
2018-04-26T03:29:33.795Z,-44
2018-04-26T03:31:59.596Z,-44
2018-04-26T03:34:25.358Z,-44
2018-04-26T03:36:51.119Z,-45
2018-04-26T03:39:16.902Z,-47
2018-04-26T03:41:42.655Z,-44
2018-04-26T03:44:08.407Z,-44
2018-04-26T03:46:34.169Z,-44
2018-04-26T03:49:00.108Z,-44
2018-04-26T03:51:25.926Z,-45
2018-04-26T03:53:51.745Z,-44
2018-04-26T03:56:17.494Z,-45
2018-04-26T03:58:43.299Z,-44
2018-04-26T04:04:23.860Z,-44
2018-04-26T04:06:49.631Z,-45
2018-04-26T04:09:15.412Z,-44
2018-04-26T04:11:41.159Z,-44
2018-04-26T04:14:06.935Z,-44
2018-04-26T04:16:32.687Z,-44
2018-04-26T04:18:58.487Z,-44
2018-04-26T04:21:24.236Z,-44
2018-04-26T04:23:50.016Z,-44
2018-04-26T04:26:15.783Z,-44
2018-04-26T04:28:41.555Z,-44
2018-04-26T04:31:07.308Z,-44
2018-04-26T04:33:33.075Z,-44
2018-04-26T04:35:58.900Z,-44
2018-04-26T04:38:24.718Z,-44
2018-04-26T04:40:50.471Z,-45
2018-04-26T04:43:16.262Z,-44
2018-04-26T04:45:42.012Z,-44
2018-04-26T04:48:07.821Z,-44
2018-04-26T04:50:33.571Z,-44
2018-04-26T04:52:59.343Z,-44
2018-04-26T04:55:25.088Z,-45
2018-04-26T04:57:50.882Z,-45
2018-04-26T05:00:16.706Z,-45
2018-04-26T05:02:42.443Z,-45
2018-04-26T05:05:08.218Z,-45
2018-04-26T05:07:33.971Z,-45
2018-04-26T05:09:59.748Z,-44
2018-04-26T05:12:25.492Z,-45
2018-04-26T05:14:51.249Z,-45
2018-04-26T05:17:17.031Z,-45
2018-04-26T05:19:42.957Z,-45
2018-04-26T05:22:08.639Z,-45
2018-04-26T05:24:34.459Z,-44
2018-04-26T05:27:00.486Z,-44
2018-04-26T05:29:26.312Z,-44
2018-04-26T05:31:52.110Z,-44
2018-04-26T05:34:17.887Z,-44
2018-04-26T05:36:43.888Z,-44
2018-04-26T05:39:09.651Z,-44
2018-04-26T05:41:35.447Z,-44
2018-04-26T05:44:01.243Z,-45
2018-04-26T05:46:27.260Z,-45
2018-04-26T05:48:53.038Z,-45
2018-04-26T05:51:18.856Z,-45
2018-04-26T05:53:44.644Z,-44
2018-04-26T05:56:10.394Z,-45
2018-04-26T05:58:36.218Z,-45
2018-04-26T06:01:01.994Z,-44
2018-04-26T06:03:27.771Z,-44
2018-04-26T06:05:53.591Z,-45
2018-04-26T06:08:19.363Z,-45
2018-04-26T06:10:45.185Z,-50
2018-04-26T06:13:10.961Z,-49
2018-04-26T06:15:36.867Z,-49
2018-04-26T06:18:02.639Z,-49
2018-04-26T06:20:28.424Z,-50
2018-04-26T06:22:54.187Z,-50
2018-04-26T06:25:19.983Z,-54
2018-04-26T06:27:45.731Z,-58
2018-04-26T06:30:11.532Z,-50
2018-04-26T06:32:37.303Z,-51
2018-04-26T06:35:03.087Z,-50
2018-04-26T06:37:28.874Z,-49
2018-04-26T06:39:54.624Z,-50
2018-04-26T06:42:20.474Z,-51
2018-04-26T06:44:46.155Z,-50
2018-04-26T06:47:11.940Z,-51
2018-04-26T06:49:37.744Z,-50
2018-04-26T06:52:03.509Z,-50
2018-04-26T06:54:29.603Z,-51
2018-04-26T06:56:55.428Z,-51
2018-04-26T06:59:21.173Z,-51
2018-04-26T07:01:46.943Z,-51
2018-04-26T07:04:12.699Z,-51
2018-04-26T07:06:38.500Z,-50
2018-04-26T07:09:04.276Z,-49
2018-04-26T07:11:30.289Z,-51
2018-04-26T07:13:56.055Z,-50
2018-04-26T07:16:21.815Z,-50
2018-04-26T07:18:47.573Z,-50
2018-04-26T07:21:13.351Z,-50
2018-04-26T07:23:39.107Z,-51
2018-04-26T07:26:04.912Z,-51
2018-04-26T07:28:30.699Z,-50
2018-04-26T07:30:56.470Z,-51
2018-04-26T07:33:22.227Z,-51
2018-04-26T07:35:48.017Z,-50
2018-04-26T07:38:13.786Z,-51
2018-04-26T07:40:39.564Z,-50
2018-04-26T07:43:05.351Z,-51
2018-04-26T07:45:31.111Z,-50
2018-04-26T07:47:56.875Z,-50
2018-04-26T07:50:22.639Z,-50
2018-04-26T07:52:48.429Z,-50
2018-04-26T07:55:14.186Z,-50
2018-04-26T07:57:40.204Z,-50
2018-04-26T08:00:06.018Z,-50
2018-04-26T08:02:31.810Z,-51
2018-04-26T08:04:57.571Z,-51
2018-04-26T08:07:23.327Z,-50
2018-04-26T08:09:49.091Z,-52
2018-04-26T08:12:14.868Z,-50
2018-04-26T08:14:40.624Z,-50
2018-04-26T08:17:06.404Z,-50
2018-04-26T08:19:32.172Z,-50
2018-04-26T08:21:57.951Z,-50
2018-04-26T08:24:23.709Z,-50
2018-04-26T08:26:49.482Z,-51
2018-04-26T08:29:15.255Z,-50
2018-04-26T08:31:41.025Z,-51
2018-04-26T08:34:06.767Z,-52
2018-04-26T08:36:32.563Z,-51
2018-04-26T08:38:58.364Z,-51
2018-04-26T08:41:24.148Z,-50
2018-04-26T08:43:49.916Z,-51
2018-04-26T08:46:15.673Z,-50
2018-04-26T08:48:41.415Z,-51
2018-04-26T08:51:07.292Z,-52
2018-04-26T08:53:33.063Z,-51
2018-04-26T08:55:58.815Z,-50
2018-04-26T08:58:24.648Z,-50
2018-04-26T09:00:50.435Z,-50
2018-04-26T09:03:16.220Z,-50
2018-04-26T09:05:41.967Z,-50
2018-04-26T09:08:07.745Z,-50
2018-04-26T09:10:33.479Z,-50
2018-04-26T09:12:59.256Z,-50
2018-04-26T09:15:25.020Z,-50
2018-04-26T09:17:50.799Z,-50
2018-04-26T09:20:16.614Z,-50
2018-04-26T09:22:42.389Z,-50
2018-04-26T09:25:08.175Z,-50
2018-04-26T09:27:33.951Z,-50
2018-04-26T09:30:00.061Z,-50
2018-04-26T09:32:25.752Z,-50
2018-04-26T09:34:51.503Z,-50
2018-04-26T09:37:17.266Z,-50
2018-04-26T09:39:43.070Z,-52
2018-04-26T09:42:08.878Z,-51
2018-04-26T09:44:34.644Z,-54
2018-04-26T09:47:00.440Z,-52
2018-04-26T09:49:26.192Z,-50
2018-04-26T09:51:51.966Z,-50
2018-04-26T09:54:17.715Z,-52
2018-04-26T09:56:43.673Z,-50
2018-04-26T09:59:09.438Z,-53
2018-04-26T10:01:35.220Z,-51
2018-04-26T10:04:07.136Z,-49
2018-04-26T10:06:32.931Z,-49
2018-04-26T10:08:58.730Z,-50
2018-04-26T10:11:24.495Z,-49
2018-04-26T10:13:50.268Z,-51
2018-04-26T10:16:16.027Z,-49
2018-04-26T10:18:41.892Z,-49
2018-04-26T10:21:07.645Z,-51
2018-04-26T10:23:33.431Z,-51
2018-04-26T10:25:59.284Z,-50
2018-04-26T10:28:25.055Z,-49
2018-04-26T10:30:50.827Z,-50
2018-04-26T10:33:16.626Z,-51
2018-04-26T10:35:42.388Z,-51
2018-04-26T10:38:08.162Z,-51
2018-04-26T10:40:33.911Z,-52
2018-04-26T10:42:59.695Z,-52
2018-04-26T10:45:25.483Z,-52
2018-04-26T10:47:51.254Z,-52
2018-04-26T10:50:17.016Z,-53
2018-04-26T10:52:42.843Z,-52
2018-04-26T10:55:08.591Z,-52
2018-04-26T10:57:34.414Z,-52
2018-04-26T11:00:00.219Z,-52
2018-04-26T11:02:25.959Z,-52
2018-04-26T11:04:52.020Z,-52
2018-04-26T11:07:17.808Z,-52
2018-04-26T11:09:43.583Z,-52
2018-04-26T11:12:09.359Z,-52
2018-04-26T11:14:35.107Z,-52
2018-04-26T11:17:00.923Z,-52
2018-04-26T11:19:26.724Z,-52
2018-04-26T11:21:52.499Z,-53
2018-04-26T11:24:18.313Z,-51
2018-04-26T11:26:44.098Z,-51
2018-04-26T11:29:09.860Z,-52
2018-04-26T11:31:35.644Z,-51
2018-04-26T11:34:01.413Z,-52
2018-04-26T11:36:27.178Z,-53
2018-04-26T11:38:52.962Z,-52
2018-04-26T11:41:18.738Z,-51
2018-04-26T11:43:44.480Z,-51
2018-04-26T11:46:10.236Z,-52
2018-04-26T11:48:36.004Z,-52
2018-04-26T11:51:01.780Z,-52
2018-04-26T11:53:27.600Z,-51
2018-04-26T11:55:53.354Z,-52
2018-04-26T11:58:19.238Z,-52
2018-04-26T12:00:45.062Z,-52
2018-04-26T12:03:11.160Z,-51
2018-04-26T12:05:36.944Z,-52
2018-04-26T12:08:02.798Z,-53
2018-04-26T12:10:28.624Z,-54
2018-04-26T12:12:54.396Z,-51
2018-04-26T12:15:20.150Z,-52
2018-04-26T12:17:45.931Z,-52
2018-04-26T12:20:11.946Z,-51
2018-04-26T12:22:37.697Z,-52
2018-04-26T12:25:03.491Z,-52
2018-04-26T12:27:29.247Z,-51
2018-04-26T12:29:55.326Z,-50
2018-04-26T12:32:21.091Z,-52
2018-04-26T12:34:46.876Z,-51
2018-04-26T12:37:12.639Z,-51
2018-04-26T12:39:38.427Z,-51
2018-04-26T12:42:04.290Z,-51
2018-04-26T12:44:29.991Z,-52
2018-04-26T12:46:55.758Z,-51
2018-04-26T12:49:21.538Z,-54
2018-04-26T12:51:47.307Z,-52
2018-04-26T12:54:13.259Z,-52
2018-04-26T12:56:39.054Z,-53
2018-04-26T12:59:04.965Z,-51
2018-04-26T13:01:30.975Z,-52
2018-04-26T13:03:56.743Z,-51
2018-04-26T13:06:22.617Z,-52
2018-04-26T13:08:48.391Z,-51
2018-04-26T13:11:14.165Z,-52
2018-04-26T13:13:39.951Z,-52
2018-04-26T13:16:05.715Z,-52
2018-04-26T13:18:31.505Z,-52
2018-04-26T13:20:57.271Z,-51
2018-04-26T13:23:23.168Z,-51
2018-04-26T13:25:49.003Z,-52
2018-04-26T13:28:14.790Z,-51
2018-04-26T13:30:40.570Z,-53
2018-04-26T13:33:06.336Z,-52
2018-04-26T13:35:32.141Z,-48
2018-04-26T13:37:58.348Z,-52
2018-04-26T13:40:24.470Z,-52
2018-04-26T13:42:50.244Z,-52
2018-04-26T13:45:15.991Z,-51
2018-04-26T13:47:41.764Z,-51
2018-04-26T13:50:07.547Z,-51
2018-04-26T13:52:33.335Z,-51
2018-04-26T13:54:59.102Z,-51
2018-04-26T13:57:24.889Z,-51
2018-04-26T13:59:50.701Z,-51
2018-04-26T14:02:16.487Z,-51
2018-04-26T14:04:42.223Z,-52
2018-04-26T14:07:08.015Z,-52
2018-04-26T14:09:33.949Z,-54
2018-04-26T14:11:59.899Z,-52
2018-04-26T14:14:25.682Z,-51
2018-04-26T14:16:51.495Z,-55
2018-04-26T14:19:17.263Z,-52
2018-04-26T14:21:43.077Z,-52
2018-04-26T14:24:08.888Z,-52
2018-04-26T14:26:34.668Z,-52
2018-04-26T14:29:00.469Z,-52
2018-04-26T14:31:26.316Z,-51
2018-04-26T14:33:52.109Z,-52
2018-04-26T14:36:17.876Z,-51
2018-04-26T14:38:43.664Z,-52
2018-04-26T14:41:09.576Z,-52
2018-04-26T14:43:35.388Z,-52
2018-04-26T14:46:01.131Z,-52
2018-04-26T14:48:26.900Z,-52
2018-04-26T14:50:52.698Z,-52
2018-04-26T14:53:18.460Z,-52
2018-04-26T14:55:44.232Z,-52
2018-04-26T14:58:10.363Z,-52
2018-04-26T15:00:36.139Z,-52
2018-04-26T15:03:01.920Z,-52
2018-04-26T15:05:27.716Z,-52
2018-04-26T15:07:53.478Z,-53
2018-04-26T15:10:19.226Z,-53
2018-04-26T15:12:44.994Z,-52
2018-04-26T15:15:10.752Z,-51
2018-04-26T15:17:36.523Z,-52
2018-04-26T15:20:02.310Z,-53
2018-04-26T15:22:28.088Z,-53
2018-04-26T15:24:53.831Z,-53
2018-04-26T15:27:19.633Z,-53
2018-04-26T15:29:45.391Z,-51
2018-04-26T15:32:11.155Z,-52
2018-04-26T15:34:36.904Z,-51
2018-04-26T15:37:02.698Z,-51
2018-04-26T15:39:28.440Z,-52
2018-04-26T15:41:54.199Z,-52
2018-04-26T15:44:19.987Z,-51
2018-04-26T15:46:46.128Z,-52
2018-04-26T15:49:11.889Z,-51
2018-04-26T15:51:37.719Z,-51
2018-04-26T15:54:15.687Z,-52
2018-04-26T15:56:54.076Z,-52
2018-04-26T15:59:32.262Z,-52
2018-04-26T16:02:25.229Z,-51
2018-04-26T16:05:03.338Z,-53
2018-04-26T16:11:05.968Z,-52
2018-04-26T16:13:50.238Z,-53
2018-04-26T16:16:34.410Z,-50
2018-04-26T16:19:18.663Z,-52
2018-04-26T16:21:56.775Z,-52
2018-04-26T16:27:43.510Z,-52
2018-04-26T16:30:21.727Z,-52
2018-04-26T16:33:04.944Z,-49
2018-04-26T16:35:42.870Z,-49
2018-04-26T16:38:21.062Z,-50
2018-04-26T16:40:46.820Z,-48
2018-04-26T16:43:13.688Z,-49
2018-04-26T16:45:39.488Z,-48
2018-04-26T16:48:05.260Z,-49
2018-04-26T16:50:31.023Z,-49
2018-04-26T16:52:56.796Z,-49
2018-04-26T16:55:22.557Z,-52
2018-04-26T16:57:48.614Z,-50
2018-04-26T17:00:14.371Z,-48
2018-04-26T17:02:40.139Z,-49
2018-04-26T17:05:05.888Z,-50
2018-04-26T17:07:31.675Z,-49
2018-04-26T17:09:57.431Z,-49
2018-04-26T17:12:23.199Z,-50
2018-04-26T17:14:48.993Z,-49
2018-04-26T17:17:14.771Z,-49
2018-04-26T17:19:40.739Z,-50
2018-04-26T17:22:06.638Z,-51
2018-04-26T17:24:32.442Z,-50
2018-04-26T17:26:58.195Z,-50
2018-04-26T17:29:30.851Z,-50
2018-04-26T17:31:56.615Z,-50
2018-04-26T17:34:22.390Z,-50
2018-04-26T17:36:48.193Z,-50
2018-04-26T17:39:13.963Z,-50
2018-04-26T17:41:39.727Z,-50
2018-04-26T17:44:05.519Z,-49
2018-04-26T17:46:31.280Z,-49
2018-04-26T17:48:57.051Z,-49
2018-04-26T17:51:22.863Z,-49
2018-04-26T17:53:48.651Z,-49
2018-04-26T17:56:14.392Z,-50
2018-04-26T17:58:40.360Z,-50
2018-04-26T18:01:06.115Z,-50
2018-04-26T18:03:31.951Z,-50
2018-04-26T18:05:57.743Z,-50
2018-04-26T18:08:24.008Z,-52
2018-04-26T18:10:49.775Z,-49
2018-04-26T18:13:15.544Z,-49
2018-04-26T18:15:41.292Z,-49
2018-04-26T18:18:07.088Z,-50
2018-04-26T18:20:32.835Z,-49
2018-04-26T18:22:58.879Z,-50
2018-04-26T18:25:24.651Z,-49
2018-04-26T18:27:50.394Z,-50
2018-04-26T18:30:16.171Z,-49
2018-04-26T18:32:41.924Z,-49
2018-04-26T18:35:07.714Z,-50
2018-04-26T18:37:33.468Z,-50
2018-04-26T18:39:59.292Z,-50
2018-04-26T18:42:25.075Z,-50
2018-04-26T18:44:50.823Z,-50
2018-04-26T18:47:16.604Z,-50
2018-04-26T18:49:42.349Z,-50
2018-04-26T18:52:08.168Z,-50
2018-04-26T18:54:34.222Z,-50
2018-04-26T18:57:00.163Z,-50
2018-04-26T18:59:25.909Z,-50
2018-04-26T19:01:51.673Z,-50
2018-04-26T19:04:17.459Z,-50
2018-04-26T19:06:43.219Z,-50
2018-04-26T19:09:08.989Z,-50
2018-04-26T19:11:34.780Z,-48
2018-04-26T19:14:00.540Z,-50
2018-04-26T19:16:26.303Z,-49
2018-04-26T19:18:52.076Z,-50
2018-04-26T19:21:17.900Z,-49
2018-04-26T19:23:43.663Z,-50
2018-04-26T19:26:09.413Z,-51
2018-04-26T19:28:35.223Z,-49
2018-04-26T19:31:00.988Z,-51
2018-04-26T19:33:26.734Z,-50
2018-04-26T19:35:52.509Z,-50
2018-04-26T19:38:18.295Z,-50
2018-04-26T19:40:44.044Z,-50
2018-04-26T19:43:09.831Z,-50
2018-04-26T19:45:35.591Z,-50
2018-04-26T19:48:01.360Z,-50
2018-04-26T19:50:27.187Z,-50
2018-04-26T19:52:53.304Z,-50
2018-04-26T19:55:19.160Z,-50
2018-04-26T19:57:44.973Z,-50
2018-04-26T20:00:10.682Z,-50
2018-04-26T20:02:36.447Z,-50
2018-04-26T20:05:02.234Z,-50
2018-04-26T20:07:27.983Z,-51
2018-04-26T20:09:53.731Z,-50
2018-04-26T20:12:19.504Z,-50
2018-04-26T20:14:45.394Z,-50
2018-04-26T20:17:11.168Z,-50
2018-04-26T20:19:36.927Z,-50
2018-04-26T20:22:02.763Z,-50
2018-04-26T20:24:28.543Z,-50
2018-04-26T20:26:54.288Z,-50
2018-04-26T20:29:20.128Z,-50
2018-04-26T20:31:45.907Z,-50
2018-04-26T20:34:11.662Z,-54
2018-04-26T20:36:37.439Z,-52
2018-04-26T20:39:03.238Z,-50
2018-04-26T20:41:37.315Z,-50
2018-04-26T20:44:03.139Z,-49
2018-04-26T20:46:28.906Z,-50
2018-04-26T20:48:54.688Z,-50
2018-04-26T20:51:20.484Z,-50
2018-04-26T20:53:46.235Z,-50
2018-04-26T20:56:12.014Z,-49
2018-04-26T20:58:37.792Z,-49
2018-04-26T21:01:03.568Z,-50
2018-04-26T21:03:29.319Z,-52
2018-04-26T21:05:55.112Z,-50
2018-04-26T21:08:20.902Z,-49
2018-04-26T21:10:46.692Z,-49
2018-04-26T21:13:12.463Z,-49
2018-04-26T21:15:38.209Z,-50
2018-04-26T21:18:03.986Z,-50
2018-04-26T21:20:29.804Z,-50
2018-04-26T21:22:55.617Z,-50
2018-04-26T21:25:21.421Z,-50
2018-04-26T21:27:47.188Z,-50
2018-04-26T21:30:12.953Z,-49
2018-04-26T21:32:38.724Z,-49
2018-04-26T21:35:04.471Z,-49
2018-04-26T21:37:30.229Z,-49
2018-04-26T21:39:55.973Z,-50
2018-04-26T21:42:21.749Z,-49
2018-04-26T21:44:47.527Z,-49
2018-04-26T21:47:13.287Z,-49
2018-04-26T21:49:39.035Z,-49
2018-04-26T21:52:10.913Z,-49
2018-04-26T21:54:42.991Z,-49
2018-04-26T21:57:14.988Z,-49
2018-04-26T21:59:46.884Z,-49
2018-04-26T22:02:18.746Z,-49
2018-04-26T22:07:49.920Z,-49
2018-04-26T22:10:15.659Z,-48
2018-04-26T22:12:41.704Z,-48
2018-04-26T22:15:07.457Z,-48
2018-04-26T22:17:34.930Z,-52
2018-04-26T22:20:00.779Z,-48
2018-04-26T22:22:26.591Z,-49
2018-04-26T22:24:53.935Z,-48
2018-04-26T22:27:19.759Z,-49
2018-04-26T22:29:45.511Z,-48
2018-04-26T22:32:11.682Z,-49
2018-04-26T22:34:37.443Z,-49
2018-04-26T22:37:03.207Z,-49
2018-04-26T22:39:29.004Z,-49
2018-04-26T22:41:54.756Z,-49
2018-04-26T22:44:20.514Z,-48
2018-04-26T22:46:46.279Z,-49
2018-04-26T22:49:12.056Z,-49
2018-04-26T22:51:37.844Z,-48
2018-04-26T22:54:03.868Z,-49
2018-04-26T22:56:29.627Z,-49
2018-04-26T22:58:55.588Z,-51
2018-04-26T23:01:21.375Z,-49
2018-04-26T23:03:47.112Z,-50
2018-04-26T23:06:27.833Z,-49
2018-04-26T23:08:53.624Z,-49
2018-04-26T23:11:19.366Z,-49
2018-04-26T23:13:45.139Z,-49
2018-04-26T23:16:10.887Z,-49
2018-04-26T23:18:36.651Z,-49
2018-04-26T23:21:02.422Z,-49
2018-04-26T23:23:28.199Z,-49
2018-04-26T23:25:53.943Z,-48
2018-04-26T23:28:19.723Z,-49
2018-04-26T23:30:45.480Z,-50
2018-04-26T23:33:11.261Z,-51
2018-04-26T23:35:37.011Z,-50
2018-04-26T23:38:02.796Z,-50
2018-04-26T23:40:28.564Z,-51
2018-04-26T23:42:54.362Z,-50
2018-04-26T23:45:20.103Z,-50
2018-04-26T23:47:45.898Z,-51
2018-04-26T23:50:11.652Z,-50
2018-04-26T23:52:37.455Z,-50
2018-04-26T23:55:03.223Z,-50
2018-04-26T23:57:29.200Z,-50
2018-04-26T23:59:54.965Z,-50
